Weather at Piana Cinque Miglia Airfield

Public forecast

Using degrees Celsius for public forecast. Weather courtesy of forecast.io.

Closest aviation weather report (METAR) to Piana Cinque Miglia Airfield

Closest report is Abruzzo Airport, 34.0 nm (63.0 km) NNE.

2024/07/18 15:50 (retrieved 40 minutes ago)

LIBP 181550Z 04008KT 360V070 CAVOK 32/23 Q1015

Closest aviation forecast (TAF) to Piana Cinque Miglia Airfield

Closest forecast is Abruzzo Airport, 34.0 nm (63.0 km) NNE.

2024/07/18 12:25 (retrieved 4 hours ago)

TAF LIBP 181100Z 1812/1912 02010KT CAVOK BECMG 1815/1817 VRB05KT BECMG 1907/1909 01010KT